Time;durP1;ratioP1;P1;durP2;ratioP2;P2;SDS_P1;SDS_P2;PMS_P1;PMS_P2;Temp;Humidity;BMP_temperature;BMP_pressure;BME280_temperature;BME280_humidity;BME280_pressure;Samples;Min_cycle;Max_cycle;Signal;HPM_P1;HPM_P2
2024/04/13 00:00:28;;;;;;;9.77;3.53;;;15.50;99.90;;;;;;5457954;26;20078;-69
2024/04/13 00:02:54;;;;;;;9.85;4.22;;;15.50;99.90;;;;;;5455108;26;20022;-70
2024/04/13 00:05:19;;;;;;;18.05;4.53;;;15.40;99.90;;;;;;5448768;26;19998;-70
2024/04/13 00:07:45;;;;;;;7.03;4.03;;;15.50;99.90;;;;;;5461150;26;20425;-71
2024/04/13 00:10:10;;;;;;;8.05;4.28;;;15.70;99.90;;;;;;5452146;26;20005;-71
2024/04/13 00:12:36;;;;;;;9.50;3.92;;;15.70;99.90;;;;;;5455852;26;20022;-68
2024/04/13 00:15:02;;;;;;;7.00;4.10;;;15.70;99.90;;;;;;5455439;26;20008;-70
2024/04/13 00:17:27;;;;;;;6.47;3.65;;;15.80;99.90;;;;;;5451018;26;20007;-69
2024/04/13 00:19:53;;;;;;;8.68;4.05;;;15.80;99.90;;;;;;5459097;26;20050;-69
2024/04/13 00:22:19;;;;;;;8.30;4.22;;;15.70;99.90;;;;;;5453889;26;20864;-71
2024/04/13 00:24:45;;;;;;;12.13;4.10;;;15.60;99.90;;;;;;5452582;26;20010;-70
2024/04/13 00:27:11;;;;;;;11.00;5.72;;;15.50;99.90;;;;;;5455339;26;20006;-70
2024/04/13 00:29:37;;;;;;;12.57;4.82;;;15.60;99.90;;;;;;5451053;26;20017;-69
2024/04/13 00:32:05;;;;;;;8.55;4.22;;;15.50;99.90;;;;;;5449710;26;20013;-69
2024/04/13 00:34:31;;;;;;;14.00;4.57;;;15.30;99.90;;;;;;5453654;26;20415;-70
2024/04/13 00:36:57;;;;;;;7.70;4.45;;;15.20;99.90;;;;;;5455031;26;20010;-70
2024/04/13 00:39:23;;;;;;;7.20;3.75;;;15.30;99.90;;;;;;5450391;26;20017;-69
2024/04/13 00:41:49;;;;;;;6.82;3.70;;;15.40;99.90;;;;;;5450158;26;20006;-70
2024/04/13 00:44:14;;;;;;;8.20;4.03;;;15.40;99.90;;;;;;5457276;26;19991;-70
2024/04/13 00:46:42;;;;;;;10.60;4.38;;;15.30;99.90;;;;;;5455526;26;20065;-69
2024/04/13 00:49:13;;;;;;;10.35;3.80;;;15.40;99.90;;;;;;5456082;26;20651;-69
2024/04/13 00:51:42;;;;;;;7.10;4.28;;;15.50;99.90;;;;;;5454647;26;20494;-69
2024/04/13 00:54:07;;;;;;;6.85;3.88;;;15.20;99.90;;;;;;5456898;26;20345;-70
2024/04/13 00:56:33;;;;;;;7.07;3.58;;;15.00;99.90;;;;;;5460946;26;20006;-70
2024/04/13 00:59:00;;;;;;;17.73;5.38;;;14.90;99.90;;;;;;5455636;26;20014;-69
2024/04/13 01:01:27;;;;;;;6.35;4.10;;;15.00;99.90;;;;;;5456439;26;20766;-70
2024/04/13 01:03:52;;;;;;;8.00;4.22;;;15.10;99.90;;;;;;5453499;26;20093;-70
2024/04/13 01:06:18;;;;;;;6.15;3.55;;;15.10;99.90;;;;;;5454667;26;20083;-69
2024/04/13 01:08:43;;;;;;;7.72;4.75;;;15.20;99.90;;;;;;5449989;26;20006;-69
2024/04/13 01:11:12;;;;;;;6.22;3.72;;;15.30;99.90;;;;;;5450673;26;20460;-70
2024/04/13 01:13:40;;;;;;;7.65;4.38;;;14.90;99.90;;;;;;5456602;26;20048;-70
2024/04/13 01:16:07;;;;;;;10.40;3.55;;;15.30;99.90;;;;;;5456324;26;20013;-70
2024/04/13 01:18:32;;;;;;;8.20;4.05;;;15.40;99.90;;;;;;5458928;26;20066;-70
2024/04/13 01:20:58;;;;;;;8.35;3.88;;;15.30;99.90;;;;;;5455399;26;20010;-70
2024/04/13 01:23:28;;;;;;;6.43;3.90;;;15.10;99.90;;;;;;5456715;26;20020;-69
2024/04/13 01:25:56;;;;;;;8.05;3.97;;;15.10;99.90;;;;;;5451735;26;20002;-69
2024/04/13 01:28:22;;;;;;;8.98;3.53;;;14.90;99.90;;;;;;5451671;26;21330;-69
2024/04/13 01:30:47;;;;;;;8.77;3.95;;;14.70;99.90;;;;;;5454605;26;20844;-71
2024/04/13 01:33:13;;;;;;;8.30;4.40;;;14.70;99.90;;;;;;5452874;26;20006;-69
2024/04/13 01:35:39;;;;;;;6.05;3.75;;;14.60;99.90;;;;;;5458722;26;21675;-69
2024/04/13 01:38:05;;;;;;;9.60;4.05;;;14.60;99.90;;;;;;5455035;26;20014;-69
2024/04/13 01:40:30;;;;;;;9.25;4.40;;;14.60;99.90;;;;;;5449681;26;20006;-69
2024/04/13 01:42:56;;;;;;;7.47;3.78;;;14.70;99.90;;;;;;5456868;26;20005;-70
2024/04/13 01:45:21;;;;;;;10.10;4.00;;;14.90;99.90;;;;;;5458976;26;20547;-71
2024/04/13 01:47:47;;;;;;;6.55;4.03;;;15.10;99.90;;;;;;5457953;26;20003;-69
2024/04/13 01:50:13;;;;;;;5.80;3.58;;;15.20;99.90;;;;;;5454647;26;20002;-71
2024/04/13 01:52:38;;;;;;;9.20;3.75;;;15.10;99.90;;;;;;5458607;26;20057;-69
2024/04/13 01:55:04;;;;;;;10.25;3.70;;;15.00;99.90;;;;;;5448540;26;20007;-69
2024/04/13 01:57:30;;;;;;;11.57;4.07;;;14.80;99.90;;;;;;5455604;26;20348;-69
2024/04/13 01:59:55;;;;;;;9.13;3.45;;;14.80;99.90;;;;;;5454382;26;20002;-71
2024/04/13 02:02:21;;;;;;;6.30;3.58;;;14.80;99.90;;;;;;5456670;26;20002;-69
2024/04/13 02:04:47;;;;;;;8.52;4.47;;;14.80;99.90;;;;;;5451536;26;21092;-71
2024/04/13 02:07:13;;;;;;;12.20;4.10;;;14.70;99.90;;;;;;5453913;26;20012;-70
2024/04/13 02:09:39;;;;;;;5.80;3.78;;;14.90;99.90;;;;;;5458646;26;21298;-70
2024/04/13 02:12:05;;;;;;;8.23;4.00;;;15.10;99.90;;;;;;5448908;26;20002;-71
2024/04/13 02:14:30;;;;;;;8.48;3.80;;;15.20;99.90;;;;;;5454075;26;20006;-69
2024/04/13 02:16:56;;;;;;;6.80;3.47;;;15.30;99.90;;;;;;5458129;26;20011;-71
2024/04/13 02:19:22;;;;;;;7.57;3.53;;;15.30;99.90;;;;;;5457054;26;20038;-70
2024/04/13 02:21:48;;;;;;;10.70;4.25;;;15.00;99.90;;;;;;5456114;26;20013;-70
2024/04/13 02:24:13;;;;;;;6.72;3.47;;;15.10;99.90;;;;;;5454856;26;20330;-70
2024/04/13 02:26:39;;;;;;;5.78;3.70;;;15.20;99.90;;;;;;5448313;26;20014;-71
2024/04/13 02:29:05;;;;;;;7.30;2.97;;;15.10;99.90;;;;;;5449382;26;20072;-71
2024/04/13 02:31:30;;;;;;;6.47;3.28;;;15.00;99.90;;;;;;5450234;26;20021;-71
2024/04/13 02:33:56;;;;;;;6.40;3.15;;;14.90;99.90;;;;;;5459524;26;20080;-69
2024/04/13 02:36:22;;;;;;;7.47;2.92;;;14.90;99.90;;;;;;5456050;26;20002;-69
2024/04/13 02:38:47;;;;;;;5.97;3.63;;;14.70;99.90;;;;;;5453665;26;20001;-70
2024/04/13 02:41:13;;;;;;;8.80;4.38;;;14.60;99.90;;;;;;5451927;26;20369;-69
2024/04/13 02:43:39;;;;;;;7.75;3.35;;;14.90;99.90;;;;;;5452500;26;20006;-70
2024/04/13 02:46:10;;;;;;;5.85;3.40;;;14.90;99.90;;;;;;5448359;26;20341;-68
2024/04/13 02:48:41;;;;;;;9.20;3.20;;;14.90;99.90;;;;;;5451216;26;20085;-68
2024/04/13 02:51:08;;;;;;;9.52;3.53;;;14.80;99.90;;;;;;5457534;26;20013;-70
2024/04/13 02:53:34;;;;;;;12.68;3.05;;;14.70;99.90;;;;;;5455785;26;20712;-69
2024/04/13 02:56:04;;;;;;;8.98;3.95;;;14.80;99.90;;;;;;5450597;26;19994;-69
2024/04/13 02:58:29;;;;;;;8.05;4.05;;;14.60;99.90;;;;;;5455109;26;21728;-69
2024/04/13 03:01:00;;;;;;;7.35;3.22;;;14.30;99.90;;;;;;5458892;26;20010;-69
2024/04/13 03:03:26;;;;;;;8.43;3.30;;;14.10;99.90;;;;;;5444533;26;20010;-69
2024/04/13 03:06:04;;;;;;;8.20;2.90;;;13.90;99.90;;;;;;5451474;26;20020;-70
2024/04/13 03:08:33;;;;;;;8.88;3.65;;;13.80;99.90;;;;;;5455075;26;20009;-69
2024/04/13 03:11:01;;;;;;;9.45;3.80;;;13.80;99.90;;;;;;5450177;26;20014;-70
2024/04/13 03:13:27;;;;;;;10.55;4.05;;;13.80;99.90;;;;;;5454845;26;21817;-70
2024/04/13 03:15:59;;;;;;;11.05;3.63;;;13.70;99.90;;;;;;5455534;26;20671;-70
2024/04/13 03:18:28;;;;;;;7.10;3.80;;;13.40;99.90;;;;;;5444802;26;20895;-69
2024/04/13 03:20:54;;;;;;;7.43;3.00;;;13.40;99.90;;;;;;5449906;26;20002;-69
2024/04/13 03:23:20;;;;;;;8.55;3.40;;;13.60;99.90;;;;;;5449276;26;20547;-70
2024/04/13 03:25:45;;;;;;;8.68;4.13;;;13.70;99.90;;;;;;5449105;26;20012;-71
2024/04/13 03:28:12;;;;;;;6.93;3.10;;;13.90;99.90;;;;;;5450883;26;20039;-69
2024/04/13 03:30:38;;;;;;;6.32;3.20;;;13.90;99.90;;;;;;5443045;26;20293;-69
2024/04/13 03:33:05;;;;;;;11.50;4.05;;;14.00;99.90;;;;;;5451843;26;20033;-69
2024/04/13 03:35:37;;;;;;;10.32;3.55;;;13.90;99.90;;;;;;5448625;26;20013;-69
2024/04/13 03:38:02;;;;;;;7.45;3.60;;;13.90;99.90;;;;;;5440160;26;20046;-69
2024/04/13 03:40:28;;;;;;;7.88;3.72;;;13.90;99.90;;;;;;5453898;26;20242;-69
2024/04/13 03:42:53;;;;;;;7.07;3.35;;;13.90;99.90;;;;;;5452571;26;20002;-71
2024/04/13 03:45:19;;;;;;;7.25;3.03;;;13.70;99.90;;;;;;5452816;26;19994;-69
2024/04/13 03:47:45;;;;;;;7.53;3.15;;;13.80;99.90;;;;;;5452935;26;20025;-70
2024/04/13 03:50:10;;;;;;;6.55;3.55;;;13.70;99.90;;;;;;5448946;26;20017;-70
2024/04/13 03:52:37;;;;;;;9.07;3.10;;;13.90;99.90;;;;;;5443869;26;20002;-71
2024/04/13 03:55:04;;;;;;;9.35;3.40;;;14.00;99.90;;;;;;5446155;26;20005;-69
2024/04/13 03:57:32;;;;;;;5.88;2.83;;;14.10;99.90;;;;;;5445600;26;20719;-69
2024/04/13 03:59:58;;;;;;;7.88;2.78;;;14.10;99.90;;;;;;5443456;26;20086;-69
2024/04/13 04:02:23;;;;;;;5.65;2.92;;;14.10;99.90;;;;;;5451515;26;20440;-69
2024/04/13 04:04:49;;;;;;;8.85;2.55;;;14.00;99.90;;;;;;5447485;26;20378;-69
2024/04/13 04:07:15;;;;;;;10.63;2.85;;;14.10;99.90;;;;;;5447810;26;20005;-70
2024/04/13 04:09:40;;;;;;;7.03;2.65;;;14.10;99.90;;;;;;5447236;26;20010;-69
2024/04/13 04:12:06;;;;;;;5.75;2.83;;;14.00;99.90;;;;;;5451038;26;20020;-69
2024/04/13 04:14:32;;;;;;;9.18;2.70;;;14.00;99.90;;;;;;5442018;26;20001;-69
2024/04/13 04:16:58;;;;;;;7.45;3.00;;;14.10;99.90;;;;;;5443431;26;20018;-69
2024/04/13 04:19:23;;;;;;;6.60;2.92;;;14.00;99.90;;;;;;5442614;26;20021;-69
2024/04/13 04:21:49;;;;;;;12.02;3.08;;;13.80;99.90;;;;;;5446559;26;22054;-69
2024/04/13 04:24:15;;;;;;;9.80;2.90;;;13.60;99.90;;;;;;5446351;26;20797;-69
2024/04/13 04:26:41;;;;;;;5.85;2.53;;;13.60;99.90;;;;;;5447541;26;20002;-69
2024/04/13 04:29:06;;;;;;;8.45;2.38;;;13.50;99.90;;;;;;5449488;26;20020;-69
2024/04/13 04:31:32;;;;;;;10.00;3.28;;;13.30;99.90;;;;;;5447597;26;20002;-69
2024/04/13 04:33:58;;;;;;;7.55;2.55;;;13.10;99.90;;;;;;5447960;26;20048;-69
2024/04/13 04:36:24;;;;;;;7.63;2.92;;;12.90;99.90;;;;;;5440982;26;20002;-69
2024/04/13 04:38:50;;;;;;;6.57;2.60;;;13.20;99.90;;;;;;5446337;26;20100;-68
2024/04/13 04:41:15;;;;;;;23.17;3.20;;;13.20;99.90;;;;;;5442084;26;20010;-69
2024/04/13 04:43:41;;;;;;;8.25;2.40;;;13.10;99.90;;;;;;5451862;26;20034;-69
2024/04/13 04:46:09;;;;;;;6.28;2.60;;;13.10;99.90;;;;;;5447412;26;20402;-69
2024/04/13 04:48:35;;;;;;;12.60;3.55;;;13.30;99.90;;;;;;5449937;26;20034;-69
2024/04/13 04:51:02;;;;;;;5.18;3.42;;;13.50;99.90;;;;;;5450422;26;20441;-69
2024/04/13 04:53:28;;;;;;;6.80;2.20;;;13.60;99.90;;;;;;5451144;26;20017;-68
2024/04/13 04:55:56;;;;;;;9.85;2.90;;;13.50;99.90;;;;;;5445882;26;20116;-69
2024/04/13 04:58:21;;;;;;;9.65;2.83;;;13.50;99.90;;;;;;5445267;26;20834;-69
2024/04/13 05:00:48;;;;;;;5.38;2.58;;;13.40;99.90;;;;;;5445688;26;20010;-69
2024/04/13 05:03:14;;;;;;;6.53;3.17;;;13.80;99.90;;;;;;5446008;26;20010;-69
2024/04/13 05:05:41;;;;;;;5.50;2.25;;;13.80;99.90;;;;;;5450246;26;20025;-68
2024/04/13 05:08:07;;;;;;;11.25;3.13;;;13.70;99.90;;;;;;5437906;26;20400;-69
2024/04/13 05:10:32;;;;;;;5.95;2.00;;;13.70;99.90;;;;;;5445216;26;20034;-69
2024/04/13 05:12:58;;;;;;;6.57;2.65;;;13.90;99.90;;;;;;5450539;26;19998;-69
2024/04/13 05:15:24;;;;;;;6.50;2.03;;;14.10;99.90;;;;;;5451390;26;20006;-69
2024/04/13 05:17:50;;;;;;;9.98;2.80;;;14.30;99.90;;;;;;5449876;26;20612;-69
2024/04/13 05:20:16;;;;;;;5.97;2.65;;;14.10;99.90;;;;;;5446379;26;20014;-69
2024/04/13 05:22:42;;;;;;;4.30;1.95;;;14.00;99.90;;;;;;5441417;26;20013;-69
2024/04/13 05:25:07;;;;;;;8.38;2.55;;;13.90;99.90;;;;;;5445178;26;20017;-69
2024/04/13 05:27:33;;;;;;;10.10;2.63;;;14.00;99.90;;;;;;5453113;26;21644;-69
2024/04/13 05:30:02;;;;;;;5.13;2.03;;;14.10;99.90;;;;;;5453073;26;20025;-69
2024/04/13 05:32:29;;;;;;;6.88;2.30;;;14.00;99.90;;;;;;5451950;26;20002;-69
2024/04/13 05:34:54;;;;;;;5.38;2.20;;;13.80;99.90;;;;;;5451905;26;20074;-69
2024/04/13 05:37:20;;;;;;;7.65;2.63;;;13.90;99.90;;;;;;5455646;26;20261;-69
2024/04/13 05:39:46;;;;;;;5.35;2.40;;;14.00;99.90;;;;;;5453332;26;20349;-69
2024/04/13 05:42:12;;;;;;;4.88;2.10;;;13.90;99.90;;;;;;5450588;26;20010;-69
2024/04/13 05:44:37;;;;;;;4.85;2.05;;;13.90;99.90;;;;;;5454787;26;20002;-69
2024/04/13 05:47:03;;;;;;;7.30;2.15;;;14.00;99.90;;;;;;5456162;26;20456;-69
2024/04/13 05:49:29;;;;;;;4.03;1.98;;;14.10;99.90;;;;;;5458014;26;20017;-69
2024/04/13 05:51:54;;;;;;;4.95;2.38;;;14.30;99.90;;;;;;5459440;26;20090;-69
2024/04/13 05:54:21;;;;;;;7.30;2.35;;;14.40;99.90;;;;;;5452699;26;20010;-69
2024/04/13 05:56:46;;;;;;;5.45;2.28;;;14.50;99.90;;;;;;5458241;26;20017;-69
2024/04/13 05:59:12;;;;;;;4.70;2.20;;;14.40;99.90;;;;;;5460669;26;20042;-69
2024/04/13 06:01:38;;;;;;;4.82;1.92;;;14.40;99.90;;;;;;5457451;26;20650;-69
2024/04/13 06:04:04;;;;;;;5.72;2.58;;;14.50;99.90;;;;;;5456580;26;20009;-69
2024/04/13 06:06:29;;;;;;;7.35;2.42;;;14.30;99.90;;;;;;5453550;26;20002;-69
2024/04/13 06:08:55;;;;;;;7.18;2.20;;;14.40;99.90;;;;;;5460008;26;20010;-69
2024/04/13 06:11:21;;;;;;;9.60;2.50;;;14.40;99.90;;;;;;5460170;26;20014;-69
2024/04/13 06:13:46;;;;;;;4.15;2.10;;;14.40;99.90;;;;;;5457048;26;20003;-69
2024/04/13 06:16:12;;;;;;;4.40;2.15;;;14.30;99.90;;;;;;5454979;26;20017;-69
2024/04/13 06:18:38;;;;;;;4.95;2.13;;;14.30;99.90;;;;;;5451110;26;20006;-69
2024/04/13 06:21:04;;;;;;;6.63;2.78;;;14.50;99.90;;;;;;5446028;26;20071;-69
2024/04/13 06:23:29;;;;;;;6.45;2.08;;;14.60;99.90;;;;;;5451776;26;20074;-69
2024/04/13 06:25:56;;;;;;;6.07;2.38;;;14.50;99.90;;;;;;5449640;26;20014;-69
2024/04/13 06:28:23;;;;;;;5.22;2.40;;;14.50;99.90;;;;;;5447767;26;20800;-69
2024/04/13 06:30:49;;;;;;;5.50;2.10;;;14.50;99.90;;;;;;5450997;26;20404;-69
2024/04/13 06:33:16;;;;;;;6.38;2.70;;;14.50;99.90;;;;;;5448191;26;20155;-69
2024/04/13 06:35:42;;;;;;;5.10;2.60;;;14.60;99.90;;;;;;5451222;26;20629;-69
2024/04/13 06:38:08;;;;;;;5.00;2.15;;;14.50;99.90;;;;;;5447456;26;20708;-69
2024/04/13 06:40:35;;;;;;;5.90;1.80;;;14.70;99.90;;;;;;5458726;26;20016;-69
2024/04/13 06:43:01;;;;;;;5.03;2.17;;;15.10;99.90;;;;;;5459929;26;20046;-69
2024/04/13 06:45:27;;;;;;;2.67;1.33;;;15.50;99.90;;;;;;5460571;26;20010;-69
2024/04/13 06:47:52;;;;;;;6.07;1.90;;;16.20;99.90;;;;;;5457567;26;20651;-69
2024/04/13 06:50:18;;;;;;;4.35;1.98;;;17.20;99.90;;;;;;5461103;26;20608;-69
2024/04/13 06:52:44;;;;;;;5.78;2.47;;;17.90;99.60;;;;;;5457866;26;20645;-69
2024/04/13 06:55:10;;;;;;;3.92;1.75;;;18.60;99.80;;;;;;5456528;26;20007;-69
2024/04/13 06:57:36;;;;;;;5.03;1.70;;;20.10;96.80;;;;;;5459698;26;19994;-70
2024/04/13 07:00:02;;;;;;;3.63;1.85;;;22.00;95.50;;;;;;5459068;26;20850;-72
2024/04/13 07:02:28;;;;;;;8.05;1.88;;;22.90;94.40;;;;;;5457587;26;19998;-69
2024/04/13 07:04:54;;;;;;;5.97;1.83;;;23.50;92.90;;;;;;5459611;26;20080;-68
2024/04/13 07:07:19;;;;;;;7.18;2.78;;;23.10;92.30;;;;;;5451628;26;19998;-68
2024/04/13 07:09:45;;;;;;;6.03;1.88;;;24.00;92.00;;;;;;5454092;26;20002;-68
2024/04/13 07:12:10;;;;;;;8.30;2.38;;;25.00;91.90;;;;;;5454924;26;20520;-68
2024/04/13 07:14:36;;;;;;;5.20;1.77;;;24.90;91.40;;;;;;5454152;26;20096;-68
2024/04/13 07:17:02;;;;;;;5.20;1.92;;;25.30;91.20;;;;;;5454429;26;20002;-67
2024/04/13 07:19:28;;;;;;;10.60;2.58;;;25.30;91.10;;;;;;5455337;26;20086;-68
2024/04/13 07:21:54;;;;;;;9.35;1.63;;;25.00;90.70;;;;;;5456792;26;20014;-68
2024/04/13 07:24:20;;;;;;;6.50;2.22;;;24.90;91.00;;;;;;5452688;26;20016;-68
2024/04/13 07:26:45;;;;;;;3.67;1.90;;;23.10;91.30;;;;;;5451262;26;20006;-68
2024/04/13 07:29:11;;;;;;;5.75;1.65;;;22.30;91.10;;;;;;5455618;26;20652;-68
2024/04/13 07:31:37;;;;;;;8.10;1.98;;;20.70;91.80;;;;;;5454803;26;20055;-69
2024/04/13 07:34:02;;;;;;;6.63;2.22;;;18.70;93.60;;;;;;5452340;26;20394;-68
2024/04/13 07:36:28;;;;;;;7.47;2.17;;;17.90;95.30;;;;;;5456567;26;20363;-69
2024/04/13 07:38:53;;;;;;;3.05;1.50;;;17.50;96.70;;;;;;5453741;26;19994;-68
2024/04/13 07:41:19;;;;;;;8.88;2.20;;;17.30;97.40;;;;;;5453805;26;20002;-69
2024/04/13 07:43:44;;;;;;;9.45;2.60;;;17.10;97.40;;;;;;5451284;26;20038;-69
2024/04/13 07:46:10;;;;;;;7.00;2.60;;;16.70;97.10;;;;;;5450498;26;20711;-68
2024/04/13 07:48:36;;;;;;;8.05;2.15;;;16.40;97.40;;;;;;5455393;26;20010;-68
2024/04/13 07:51:03;;;;;;;4.88;1.70;;;16.50;97.80;;;;;;5453470;26;20558;-68
2024/04/13 07:53:30;;;;;;;11.15;2.58;;;16.50;97.70;;;;;;5454060;26;20002;-68
2024/04/13 07:55:57;;;;;;;4.63;2.17;;;16.60;98.10;;;;;;5453478;26;20005;-69
2024/04/13 07:58:23;;;;;;;4.75;1.80;;;16.60;98.00;;;;;;5453885;26;20747;-68
2024/04/13 08:00:49;;;;;;;5.40;1.73;;;16.70;98.60;;;;;;5453367;26;20002;-69
2024/04/13 08:03:16;;;;;;;3.65;1.80;;;16.70;98.10;;;;;;5454254;26;20074;-69
2024/04/13 08:05:41;;;;;;;41.05;8.23;;;16.70;98.20;;;;;;5454390;26;20025;-72
2024/04/13 08:08:07;;;;;;;8.77;2.67;;;16.70;98.20;;;;;;5454903;26;20006;-72
2024/04/13 08:10:37;;;;;;;18.88;3.72;;;16.80;98.30;;;;;;5443816;26;20003;-72
2024/04/13 08:13:03;;;;;;;18.70;2.78;;;16.80;98.70;;;;;;5452616;26;20024;-72
2024/04/13 08:15:28;;;;;;;8.50;2.33;;;16.70;98.60;;;;;;5455888;26;20010;-72
2024/04/13 08:17:56;;;;;;;5.13;2.00;;;16.90;98.70;;;;;;5452590;26;20006;-71
2024/04/13 08:20:22;;;;;;;4.25;2.00;;;17.00;98.30;;;;;;5452728;26;20002;-71
2024/04/13 08:22:47;;;;;;;5.50;1.67;;;16.90;98.30;;;;;;5451942;26;20013;-71
2024/04/13 08:25:13;;;;;;;6.15;2.00;;;16.80;97.90;;;;;;5450403;26;20362;-72
2024/04/13 08:27:39;;;;;;;10.93;1.65;;;16.90;98.30;;;;;;5452350;26;20046;-72
2024/04/13 08:30:05;;;;;;;4.38;1.60;;;17.10;98.50;;;;;;5453856;26;20446;-72
2024/04/13 08:32:31;;;;;;;6.78;2.10;;;17.00;97.80;;;;;;5454684;26;20125;-71
2024/04/13 08:34:57;;;;;;;6.60;1.98;;;17.10;98.00;;;;;;5457965;26;20483;-71
2024/04/13 08:37:22;;;;;;;5.10;2.30;;;17.10;98.00;;;;;;5456859;26;19998;-71
2024/04/13 08:39:48;;;;;;;6.95;1.80;;;17.20;98.20;;;;;;5454868;26;20052;-71
2024/04/13 08:42:18;;;;;;;7.63;1.92;;;17.30;98.50;;;;;;5458606;26;20009;-71
2024/04/13 08:44:43;;;;;;;5.28;1.50;;;17.30;98.10;;;;;;5459141;26;20488;-72
2024/04/13 08:47:11;;;;;;;5.68;1.45;;;18.90;97.50;;;;;;5459018;26;20009;-72
2024/04/13 08:49:39;;;;;;;4.00;1.58;;;21.70;94.90;;;;;;5457913;26;20013;-71
2024/04/13 08:52:08;;;;;;;5.03;1.50;;;22.40;93.90;;;;;;5455908;26;20049;-71
2024/04/13 08:54:34;;;;;;;6.07;2.03;;;23.70;93.80;;;;;;5457448;26;19998;-71
2024/04/13 08:57:02;;;;;;;6.00;1.50;;;23.80;92.50;;;;;;5458060;26;20003;-71
2024/04/13 08:59:28;;;;;;;9.40;2.28;;;23.40;92.40;;;;;;5459668;26;20022;-71
2024/04/13 09:01:56;;;;;;;6.13;2.33;;;23.90;92.20;;;;;;5456359;26;20006;-71
2024/04/13 09:04:22;;;;;;;10.98;2.22;;;24.00;92.80;;;;;;5457399;26;20018;-71
2024/04/13 09:06:49;;;;;;;5.00;1.80;;;23.70;92.30;;;;;;5459513;26;20082;-71
2024/04/13 09:09:15;;;;;;;3.97;1.95;;;24.00;91.80;;;;;;5455176;26;20095;-71
2024/04/13 09:11:41;;;;;;;4.53;1.77;;;24.00;91.30;;;;;;5457611;26;20006;-71
2024/04/13 09:14:07;;;;;;;4.07;1.60;;;24.50;92.10;;;;;;5455982;26;20739;-71
2024/04/13 09:16:34;;;;;;;5.20;1.83;;;23.70;91.10;;;;;;5458523;26;20020;-71
2024/04/13 09:19:00;;;;;;;5.00;1.75;;;23.60;91.90;;;;;;5459074;26;20001;-72
2024/04/13 09:21:31;;;;;;;5.85;1.95;;;23.40;92.00;;;;;;5458386;26;20473;-72
2024/04/13 09:23:57;;;;;;;10.85;2.10;;;21.80;92.10;;;;;;5459862;26;20017;-72
2024/04/13 09:26:22;;;;;;;7.28;1.90;;;21.00;93.50;;;;;;5457503;26;20736;-71
2024/04/13 09:28:49;;;;;;;5.93;1.70;;;20.70;93.80;;;;;;5455539;26;20025;-72
2024/04/13 09:31:16;;;;;;;7.05;2.42;;;20.30;94.90;;;;;;5460163;26;20013;-72
2024/04/13 09:33:49;;;;;;;4.28;1.77;;;20.20;94.20;;;;;;5454559;26;20013;-72
2024/04/13 09:36:22;;;;;;;4.05;1.80;;;20.30;94.20;;;;;;5457150;26;20021;-72
2024/04/13 09:38:48;;;;;;;8.97;1.40;;;20.30;95.50;;;;;;5457749;26;20001;-72
2024/04/13 09:41:14;;;;;;;8.77;2.47;;;19.80;93.70;;;;;;5447916;26;20025;-72
2024/04/13 09:43:40;;;;;;;5.28;1.70;;;19.80;94.10;;;;;;5457568;26;19998;-71
2024/04/13 09:46:05;;;;;;;9.82;2.30;;;19.90;94.40;;;;;;5454830;26;20885;-72
2024/04/13 09:48:31;;;;;;;5.60;1.80;;;19.90;93.50;;;;;;5455122;26;20002;-72
2024/04/13 09:50:58;;;;;;;4.43;1.42;;;20.10;94.70;;;;;;5455958;26;20002;-72
2024/04/13 09:53:24;;;;;;;6.00;1.98;;;20.20;94.00;;;;;;5452571;26;20020;-71
2024/04/13 09:55:50;;;;;;;4.70;1.88;;;20.30;94.00;;;;;;5454106;26;20475;-72
2024/04/13 09:58:16;;;;;;;11.02;2.55;;;20.50;93.60;;;;;;5454869;26;20014;-72
2024/04/13 10:00:46;;;;;;;8.23;1.98;;;20.70;93.80;;;;;;5456227;26;20002;-72
2024/04/13 10:03:13;;;;;;;10.98;2.55;;;21.10;93.50;;;;;;5456026;26;20744;-72
2024/04/13 10:05:39;;;;;;;12.65;2.72;;;21.00;93.80;;;;;;5455653;26;20079;-71
2024/04/13 10:08:09;;;;;;;3.95;1.77;;;21.00;94.40;;;;;;5456755;26;20010;-71
2024/04/13 10:10:37;;;;;;;4.00;1.88;;;21.10;93.70;;;;;;5454162;26;20016;-73
2024/04/13 10:13:04;;;;;;;4.63;2.00;;;21.10;94.50;;;;;;5451971;26;20043;-72
2024/04/13 10:15:31;;;;;;;5.55;1.77;;;21.20;93.90;;;;;;5454571;26;20010;-72
2024/04/13 10:18:00;;;;;;;8.02;2.40;;;21.00;93.30;;;;;;5453891;26;20006;-72
2024/04/13 10:20:29;;;;;;;5.68;1.60;;;21.30;94.40;;;;;;5452980;26;21497;-72
2024/04/13 10:22:56;;;;;;;8.20;1.90;;;21.40;94.00;;;;;;5456169;26;20377;-72
2024/04/13 10:25:29;;;;;;;6.78;1.95;;;21.70;94.00;;;;;;5454333;26;20010;-72
2024/04/13 10:28:19;;;;;;;6.15;1.92;;;21.80;93.60;;;;;;5459074;26;20006;-72
2024/04/13 10:30:49;;;;;;;4.20;1.52;;;21.80;93.40;;;;;;5455401;26;20028;-72
2024/04/13 10:33:23;;;;;;;4.57;1.55;;;21.80;93.60;;;;;;5456827;26;20013;-72
2024/04/13 10:36:05;;;;;;;6.30;1.95;;;22.00;92.40;;;;;;5455832;26;20544;-72
2024/04/13 10:38:33;;;;;;;10.13;1.90;;;22.00;92.50;;;;;;5455321;26;20118;-72
2024/04/13 10:40:59;;;;;;;3.08;1.35;;;22.00;93.00;;;;;;5457465;26;20055;-72
2024/04/13 10:43:25;;;;;;;5.05;1.65;;;21.90;91.90;;;;;;5454461;26;20014;-72
2024/04/13 10:46:02;;;;;;;6.10;1.83;;;22.10;92.50;;;;;;5455155;26;20010;-72
2024/04/13 10:48:30;;;;;;;7.15;1.80;;;22.10;92.10;;;;;;5456159;26;20002;-72
2024/04/13 10:50:56;;;;;;;9.07;1.95;;;22.20;92.00;;;;;;5455139;26;20476;-72
2024/04/13 10:53:27;;;;;;;5.15;1.88;;;22.30;92.00;;;;;;5456567;26;20002;-72
2024/04/13 10:55:58;;;;;;;15.05;2.67;;;22.30;91.80;;;;;;5456204;26;20456;-72
2024/04/13 10:58:31;;;;;;;5.90;1.83;;;22.40;92.80;;;;;;5457343;26;20041;-72
2024/04/13 11:00:57;;;;;;;5.55;1.55;;;22.60;91.80;;;;;;5456461;26;19998;-72
2024/04/13 11:03:30;;;;;;;5.85;1.98;;;22.70;92.00;;;;;;5455036;26;20002;-72
2024/04/13 11:05:56;;;;;;;8.57;1.50;;;22.90;92.10;;;;;;5456438;26;20039;-72
2024/04/13 11:08:23;;;;;;;7.70;1.83;;;23.10;92.30;;;;;;5456286;26;20075;-72
2024/04/13 11:10:52;;;;;;;5.88;2.08;;;23.10;91.40;;;;;;5454003;26;20022;-71
2024/04/13 11:13:19;;;;;;;5.00;1.85;;;23.20;91.00;;;;;;5455028;26;19998;-72
2024/04/13 11:15:44;;;;;;;5.15;1.70;;;22.90;90.70;;;;;;5454576;26;20022;-72
2024/04/13 11:18:10;;;;;;;7.10;1.80;;;23.00;91.20;;;;;;5454319;26;20010;-72
2024/04/13 11:20:38;;;;;;;4.32;1.50;;;23.10;91.00;;;;;;5456465;26;20356;-72
2024/04/13 11:23:04;;;;;;;13.95;2.30;;;23.20;91.20;;;;;;5457138;26;20001;-72
2024/04/13 11:25:30;;;;;;;3.05;1.52;;;23.30;91.10;;;;;;5456261;26;20006;-72
2024/04/13 11:27:56;;;;;;;5.45;1.63;;;23.50;91.50;;;;;;5460152;26;20108;-72
2024/04/13 11:30:24;;;;;;;5.45;1.80;;;23.40;90.90;;;;;;5457409;26;20009;-72
2024/04/13 11:32:51;;;;;;;3.50;1.40;;;23.20;90.10;;;;;;5459438;26;19994;-72
2024/04/13 11:35:17;;;;;;;2.92;1.45;;;23.50;91.20;;;;;;5455827;26;20340;-72
2024/04/13 11:38:00;;;;;;;4.22;1.42;;;23.90;90.50;;;;;;5460325;26;20072;-72
2024/04/13 11:40:32;;;;;;;2.90;1.30;;;23.70;90.20;;;;;;5457549;26;20485;-72
2024/04/13 11:43:01;;;;;;;3.97;1.85;;;23.90;91.40;;;;;;5458145;26;20010;-72
2024/04/13 11:45:27;;;;;;;5.82;1.85;;;24.00;90.70;;;;;;5458608;26;20702;-72
2024/04/13 11:47:53;;;;;;;5.20;1.50;;;24.10;90.70;;;;;;5457000;26;20313;-72
2024/04/13 11:50:20;;;;;;;4.18;1.80;;;24.20;89.40;;;;;;5458754;26;20082;-72
2024/04/13 11:52:46;;;;;;;8.45;1.60;;;24.10;89.20;;;;;;5459886;26;20068;-72
2024/04/13 11:55:11;;;;;;;6.60;1.48;;;24.10;91.20;;;;;;5459247;26;20010;-72
2024/04/13 11:57:46;;;;;;;5.22;1.58;;;24.40;90.60;;;;;;5458175;26;20785;-72
2024/04/13 12:00:16;;;;;;;3.97;1.63;;;24.50;90.20;;;;;;5457625;26;20079;-72
2024/04/13 12:02:44;;;;;;;8.45;2.13;;;24.50;89.90;;;;;;5459350;26;20712;-72
2024/04/13 12:05:10;;;;;;;8.13;2.08;;;24.70;91.10;;;;;;5456933;26;20724;-72
2024/04/13 12:07:35;;;;;;;3.50;1.30;;;24.70;90.10;;;;;;5457896;26;23361;-72
2024/04/13 12:10:01;;;;;;;7.20;1.90;;;24.60;87.30;;;;;;5456612;26;20006;-72
2024/04/13 12:12:27;;;;;;;3.33;1.17;;;24.60;89.60;;;;;;5459605;26;20066;-72
2024/04/13 12:14:53;;;;;;;5.03;1.65;;;24.90;90.00;;;;;;5457378;26;20801;-72
2024/04/13 12:17:19;;;;;;;7.35;1.67;;;24.90;86.10;;;;;;5454431;26;20079;-72
2024/04/13 12:19:45;;;;;;;6.00;1.48;;;24.90;85.10;;;;;;5460008;26;20074;-72
2024/04/13 12:22:11;;;;;;;2.97;1.08;;;25.00;88.80;;;;;;5457525;26;20010;-72
2024/04/13 12:24:37;;;;;;;7.30;1.20;;;25.30;90.00;;;;;;5457570;26;20050;-72
2024/04/13 12:27:04;;;;;;;4.65;1.50;;;25.40;89.70;;;;;;5458900;26;20033;-72
2024/04/13 12:29:31;;;;;;;6.10;1.55;;;25.50;87.70;;;;;;5458788;26;20102;-72
2024/04/13 12:31:57;;;;;;;14.05;1.85;;;25.50;88.70;;;;;;5456335;26;20000;-72
2024/04/13 12:34:22;;;;;;;7.93;1.75;;;25.40;86.40;;;;;;5458385;26;20673;-72
2024/04/13 12:36:48;;;;;;;4.05;1.40;;;25.50;90.10;;;;;;5454292;26;20535;-72
2024/04/13 12:39:16;;;;;;;5.53;2.08;;;25.70;89.20;;;;;;5457750;26;20003;-72
2024/04/13 12:41:42;;;;;;;6.30;1.20;;;25.70;86.20;;;;;;5458336;26;20010;-72